createdAt,value
2022-10-31T00:01:13.966Z,2.88
2022-10-31T00:03:42.904Z,3.10
2022-10-31T00:06:10.399Z,3.20
2022-10-31T00:08:38.058Z,3.30
2022-10-31T00:11:05.822Z,4.07
2022-10-31T00:13:33.243Z,3.53
2022-10-31T00:16:00.708Z,2.97
2022-10-31T00:18:28.209Z,3.28
2022-10-31T00:21:02.236Z,3.45
2022-10-31T00:23:29.682Z,3.30
2022-10-31T00:26:02.742Z,4.45
2022-10-31T00:28:31.202Z,3.63
2022-10-31T00:31:00.688Z,3.92
2022-10-31T00:33:28.131Z,3.20
2022-10-31T00:35:55.842Z,3.13
2022-10-31T00:38:24.914Z,2.80
2022-10-31T00:40:52.420Z,3.03
2022-10-31T00:43:19.971Z,3.25
2022-10-31T00:45:47.550Z,2.90
2022-10-31T00:48:15.019Z,3.10
2022-10-31T00:50:43.885Z,3.08
2022-10-31T00:53:11.367Z,2.97
2022-10-31T00:55:40.193Z,3.08
2022-10-31T00:58:07.696Z,3.65
2022-10-31T01:00:35.309Z,3.17
2022-10-31T01:03:02.905Z,3.10
2022-10-31T01:05:30.574Z,2.95
2022-10-31T01:07:58.045Z,3.20
2022-10-31T01:10:25.509Z,3.25
2022-10-31T01:12:54.267Z,3.10
2022-10-31T01:15:24.049Z,3.28
2022-10-31T01:17:51.611Z,3.10
2022-10-31T01:20:19.878Z,3.90
2022-10-31T01:22:47.434Z,3.20
2022-10-31T01:25:14.979Z,3.37
2022-10-31T01:27:42.418Z,3.30
2022-10-31T01:30:12.483Z,3.33
2022-10-31T01:32:39.928Z,3.50
2022-10-31T01:35:07.815Z,3.50
2022-10-31T01:37:35.425Z,3.00
2022-10-31T01:40:02.933Z,3.35
2022-10-31T01:42:30.388Z,3.67
2022-10-31T01:45:01.428Z,3.38
2022-10-31T01:47:35.675Z,3.30
2022-10-31T01:50:06.392Z,2.80
2022-10-31T01:52:38.543Z,3.17
2022-10-31T01:55:11.326Z,3.15
2022-10-31T01:57:42.240Z,3.55
2022-10-31T02:00:11.917Z,3.03
2022-10-31T02:02:41.006Z,3.20
2022-10-31T02:05:12.532Z,3.88
2022-10-31T02:07:45.177Z,3.05
2022-10-31T02:10:12.810Z,3.50
2022-10-31T02:12:41.197Z,3.05
2022-10-31T02:15:10.971Z,2.97
2022-10-31T02:17:38.525Z,3.25
2022-10-31T02:20:15.056Z,3.78
2022-10-31T02:23:00.915Z,3.50
2022-10-31T02:25:52.924Z,3.10
2022-10-31T02:28:36.882Z,3.80
2022-10-31T02:31:20.442Z,3.35
2022-10-31T02:33:52.708Z,3.40
2022-10-31T02:36:26.163Z,3.45
2022-10-31T02:39:01.064Z,3.33
2022-10-31T02:41:34.834Z,3.00
2022-10-31T02:44:09.498Z,2.70
2022-10-31T02:46:45.591Z,2.40
2022-10-31T02:49:23.525Z,2.58
2022-10-31T02:51:51.408Z,2.70
2022-10-31T02:54:24.540Z,2.80
2022-10-31T02:56:54.213Z,3.03
2022-10-31T02:59:22.632Z,2.90
2022-10-31T03:02:03.255Z,3.33
2022-10-31T03:04:49.842Z,2.90
2022-10-31T03:07:25.819Z,3.03
2022-10-31T03:10:02.349Z,2.90
2022-10-31T03:12:36.162Z,3.15
2022-10-31T03:15:14.454Z,3.10
2022-10-31T03:17:52.810Z,2.70
2022-10-31T03:20:25.555Z,3.87
2022-10-31T03:22:54.355Z,2.80
2022-10-31T03:25:21.845Z,2.60
2022-10-31T03:27:51.242Z,2.42
2022-10-31T03:30:18.928Z,2.60
2022-10-31T03:32:52.327Z,2.50
2022-10-31T03:35:22.897Z,2.47
2022-10-31T03:37:53.943Z,2.67
2022-10-31T03:40:23.741Z,2.88
2022-10-31T03:42:56.886Z,2.80
2022-10-31T03:45:27.086Z,3.27
2022-10-31T03:47:58.218Z,3.20
2022-10-31T03:50:31.010Z,2.95
2022-10-31T03:53:06.111Z,3.10
2022-10-31T03:55:40.603Z,3.28
2022-10-31T03:58:12.587Z,3.20
2022-10-31T04:00:42.878Z,2.97
2022-10-31T04:03:16.098Z,2.70
2022-10-31T04:05:47.761Z,3.17
2022-10-31T04:08:19.550Z,3.20
2022-10-31T04:10:50.400Z,2.80
2022-10-31T04:13:22.497Z,2.90
2022-10-31T04:15:51.423Z,2.92
2022-10-31T04:18:20.225Z,3.20
2022-10-31T04:20:50.812Z,3.10
2022-10-31T04:23:26.743Z,3.10
2022-10-31T04:25:54.314Z,2.67
2022-10-31T04:28:21.902Z,3.30
2022-10-31T04:30:49.335Z,2.88
2022-10-31T04:33:16.964Z,3.10
2022-10-31T04:35:45.962Z,3.10
2022-10-31T04:38:13.397Z,2.78
2022-10-31T04:40:40.856Z,2.75
2022-10-31T04:43:08.407Z,2.88
2022-10-31T04:45:35.974Z,3.35
2022-10-31T04:48:03.721Z,2.90
2022-10-31T04:50:31.446Z,2.88
2022-10-31T04:53:00.199Z,2.75
2022-10-31T04:55:27.676Z,2.60
2022-10-31T04:57:55.126Z,2.75
2022-10-31T05:00:24.361Z,3.00
2022-10-31T05:02:53.465Z,3.15
2022-10-31T05:05:24.518Z,2.95
2022-10-31T05:07:52.854Z,3.88
2022-10-31T05:10:23.748Z,3.72
2022-10-31T05:12:52.824Z,3.33
2022-10-31T05:15:21.545Z,3.00
2022-10-31T05:17:49.417Z,3.08
2022-10-31T05:20:18.860Z,2.55
2022-10-31T05:22:47.023Z,2.50
2022-10-31T05:25:14.963Z,2.93
2022-10-31T05:27:45.202Z,3.13
2022-10-31T05:30:15.053Z,2.63
2022-10-31T05:32:43.730Z,3.15
2022-10-31T05:35:13.190Z,2.70
2022-10-31T05:37:41.139Z,2.90
2022-10-31T05:40:11.743Z,2.88
2022-10-31T05:42:40.752Z,3.70
2022-10-31T05:45:11.066Z,3.38
2022-10-31T05:47:38.876Z,3.47
2022-10-31T05:50:07.676Z,3.30
2022-10-31T05:52:35.534Z,3.60
2022-10-31T05:55:02.977Z,3.42
2022-10-31T05:57:33.077Z,3.15
2022-10-31T06:00:00.473Z,3.50
2022-10-31T06:02:33.066Z,4.07
2022-10-31T06:05:00.518Z,4.53
2022-10-31T06:07:28.071Z,5.32
2022-10-31T06:09:55.508Z,6.22
2022-10-31T06:12:22.905Z,6.22
2022-10-31T06:14:50.313Z,4.47
2022-10-31T06:17:17.738Z,4.85
2022-10-31T06:19:46.534Z,4.10
2022-10-31T06:22:13.990Z,5.25
2022-10-31T06:24:41.601Z,5.35
2022-10-31T06:27:09.103Z,4.87
2022-10-31T06:29:36.527Z,4.70
2022-10-31T06:32:04.011Z,5.35
2022-10-31T06:34:31.454Z,7.35
2022-10-31T06:37:00.214Z,8.10
2022-10-31T06:39:27.637Z,8.43
2022-10-31T06:41:55.040Z,7.97
2022-10-31T06:44:22.452Z,7.53
2022-10-31T06:46:49.878Z,7.43
2022-10-31T06:49:17.442Z,7.95
2022-10-31T06:51:45.116Z,6.77
2022-10-31T06:54:13.899Z,5.88
2022-10-31T06:56:41.353Z,6.70
2022-10-31T06:59:08.798Z,7.20
2022-10-31T07:01:36.369Z,6.55
2022-10-31T07:04:03.993Z,7.13
2022-10-31T07:06:31.375Z,7.50
2022-10-31T07:08:58.944Z,8.15
2022-10-31T07:11:27.720Z,7.28
2022-10-31T07:13:55.135Z,7.32
2022-10-31T07:16:22.571Z,7.43
2022-10-31T07:18:49.978Z,6.95
2022-10-31T07:21:17.598Z,6.90
2022-10-31T07:23:44.988Z,6.75
2022-10-31T07:26:12.467Z,5.95
2022-10-31T07:28:41.278Z,9.50
2022-10-31T07:31:08.681Z,8.05
2022-10-31T07:33:36.099Z,21.17
2022-10-31T07:36:03.531Z,15.00
2022-10-31T07:38:30.962Z,8.02
2022-10-31T07:40:58.379Z,5.30
2022-10-31T07:43:25.812Z,5.57
2022-10-31T07:45:55.215Z,6.18
2022-10-31T07:48:23.075Z,7.82
2022-10-31T07:50:50.529Z,6.40
2022-10-31T07:53:18.204Z,10.63
2022-10-31T07:55:45.730Z,8.10
2022-10-31T07:58:14.810Z,7.50
2022-10-31T08:00:44.126Z,6.63
2022-10-31T08:03:14.661Z,5.55
2022-10-31T08:05:42.637Z,6.13
2022-10-31T08:08:10.700Z,5.70
2022-10-31T08:10:38.416Z,5.75
2022-10-31T08:13:07.922Z,6.18
2022-10-31T08:15:38.991Z,6.03
2022-10-31T08:18:06.854Z,5.27
2022-10-31T08:20:35.588Z,5.57
2022-10-31T08:23:05.939Z,6.30
2022-10-31T08:25:38.423Z,5.75
2022-10-31T08:28:07.367Z,6.35
2022-10-31T08:30:37.741Z,5.77
2022-10-31T08:33:06.990Z,6.18
2022-10-31T08:35:35.911Z,5.95
2022-10-31T08:38:04.424Z,5.55
2022-10-31T08:40:33.879Z,5.65
2022-10-31T08:43:02.659Z,5.73
2022-10-31T08:45:31.186Z,5.00
2022-10-31T08:48:00.234Z,5.28
2022-10-31T08:50:27.950Z,4.85
2022-10-31T08:53:05.558Z,5.10
2022-10-31T08:55:35.292Z,5.40
2022-10-31T08:58:03.766Z,4.75
2022-10-31T09:00:31.481Z,5.20
2022-10-31T09:02:59.597Z,5.13
2022-10-31T09:05:27.712Z,4.93
2022-10-31T09:07:59.475Z,4.77
2022-10-31T09:10:28.318Z,4.72
2022-10-31T09:12:59.270Z,4.50
2022-10-31T09:15:27.279Z,4.57
2022-10-31T09:17:54.997Z,4.30
2022-10-31T09:20:22.717Z,4.13
2022-10-31T09:22:59.564Z,4.10
2022-10-31T09:25:28.082Z,4.07
2022-10-31T09:27:58.366Z,4.35
2022-10-31T09:30:26.115Z,4.40
2022-10-31T09:32:57.013Z,3.93
2022-10-31T09:35:25.794Z,3.50
2022-10-31T09:37:56.849Z,4.00
2022-10-31T09:40:31.641Z,2.90
2022-10-31T09:43:06.421Z,3.35
2022-10-31T09:45:41.023Z,3.30
2022-10-31T09:48:21.170Z,3.40
2022-10-31T09:50:53.035Z,3.22
2022-10-31T09:53:28.153Z,3.67
2022-10-31T09:55:57.212Z,3.58
2022-10-31T09:58:28.129Z,3.00
2022-10-31T10:00:58.734Z,2.90
2022-10-31T10:03:33.430Z,2.65
2022-10-31T10:06:11.059Z,2.80
2022-10-31T10:08:39.118Z,2.63
2022-10-31T10:11:25.220Z,2.97
2022-10-31T10:14:20.879Z,3.20
2022-10-31T10:17:08.910Z,2.63
2022-10-31T10:19:51.988Z,2.83
2022-10-31T10:22:29.664Z,2.55
2022-10-31T10:25:11.073Z,2.80
2022-10-31T10:27:50.617Z,2.58
2022-10-31T10:30:21.210Z,3.00
2022-10-31T10:32:53.170Z,2.90
2022-10-31T10:35:26.705Z,2.90
2022-10-31T10:38:00.769Z,3.30
2022-10-31T10:40:30.259Z,2.83
2022-10-31T10:43:26.218Z,2.55
2022-10-31T10:46:35.881Z,2.88
2022-10-31T10:49:14.204Z,2.58
2022-10-31T10:51:58.182Z,2.80
2022-10-31T10:54:44.681Z,2.60
2022-10-31T10:57:24.277Z,2.80
2022-10-31T10:59:53.329Z,2.65
2022-10-31T11:02:22.326Z,2.85
2022-10-31T11:04:53.765Z,2.90
2022-10-31T11:07:21.311Z,2.80
2022-10-31T11:09:48.888Z,2.67
2022-10-31T11:12:24.084Z,3.00
2022-10-31T11:14:56.750Z,3.10
2022-10-31T11:17:30.837Z,2.40
2022-10-31T11:20:08.220Z,2.65
2022-10-31T11:22:35.667Z,2.80
2022-10-31T11:25:22.407Z,2.97
2022-10-31T11:28:00.821Z,3.03
2022-10-31T11:30:30.740Z,3.20
2022-10-31T11:32:59.022Z,3.20
2022-10-31T11:35:27.531Z,2.63
2022-10-31T11:37:59.748Z,2.92
2022-10-31T11:40:28.914Z,3.10
2022-10-31T11:42:59.551Z,2.83
2022-10-31T11:45:34.781Z,3.00
2022-10-31T11:48:04.610Z,2.38
2022-10-31T11:50:38.200Z,3.33
2022-10-31T11:53:06.162Z,3.00
2022-10-31T11:55:35.868Z,2.70
2022-10-31T11:58:04.139Z,3.05
2022-10-31T12:00:35.674Z,2.78
2022-10-31T12:03:12.972Z,2.90
2022-10-31T12:05:43.154Z,2.60
2022-10-31T12:08:11.954Z,2.90
2022-10-31T12:10:50.898Z,2.13
2022-10-31T12:13:31.998Z,2.58
2022-10-31T12:16:08.236Z,2.42
2022-10-31T12:18:55.019Z,2.75
2022-10-31T12:21:35.848Z,2.30
2022-10-31T12:24:15.932Z,2.58
2022-10-31T12:26:56.436Z,2.20
2022-10-31T12:29:38.276Z,2.42
2022-10-31T12:32:22.178Z,2.63
2022-10-31T12:35:18.835Z,2.53
2022-10-31T12:37:58.947Z,2.15
2022-10-31T12:40:39.030Z,2.20
2022-10-31T12:43:35.212Z,2.42
2022-10-31T12:46:06.010Z,2.78
2022-10-31T12:48:57.477Z,2.27
2022-10-31T12:51:33.956Z,1.90
2022-10-31T12:54:20.125Z,2.45
2022-10-31T12:56:56.771Z,2.33
2022-10-31T12:59:32.519Z,2.28
2022-10-31T13:02:06.223Z,2.10
2022-10-31T13:04:44.236Z,2.58
2022-10-31T13:07:16.301Z,2.45
2022-10-31T13:09:49.842Z,2.60
2022-10-31T13:12:20.818Z,2.30
2022-10-31T13:14:54.150Z,2.07
2022-10-31T13:17:28.011Z,2.10
2022-10-31T13:20:07.322Z,2.28
2022-10-31T13:22:37.341Z,2.70
2022-10-31T13:25:12.972Z,2.30
2022-10-31T13:27:49.290Z,2.37
2022-10-31T13:30:19.220Z,2.88
2022-10-31T13:32:50.687Z,2.80
2022-10-31T13:35:25.688Z,2.08
2022-10-31T13:38:04.468Z,2.47
2022-10-31T13:40:39.770Z,2.47
2022-10-31T13:43:17.930Z,2.45
2022-10-31T13:45:53.646Z,1.95
2022-10-31T13:48:36.130Z,2.42
2022-10-31T13:51:08.380Z,2.20
2022-10-31T13:53:46.330Z,2.07
2022-10-31T13:56:19.395Z,2.38
2022-10-31T13:59:04.151Z,1.40
2022-10-31T14:01:32.380Z,2.25
2022-10-31T14:04:14.068Z,2.22
2022-10-31T14:06:51.668Z,2.60
2022-10-31T14:09:30.264Z,2.30
2022-10-31T14:12:01.482Z,2.20
2022-10-31T14:14:36.025Z,1.83
2022-10-31T14:17:04.089Z,1.70
2022-10-31T14:19:31.589Z,1.80
2022-10-31T14:22:00.430Z,1.80
2022-10-31T14:24:37.580Z,1.83
2022-10-31T14:27:27.293Z,2.10
2022-10-31T14:29:54.862Z,2.13
2022-10-31T14:32:24.975Z,2.07
2022-10-31T14:34:57.466Z,2.53
2022-10-31T14:37:49.589Z,3.10
2022-10-31T14:40:26.597Z,2.63
2022-10-31T14:43:20.726Z,2.35
2022-10-31T14:45:55.453Z,1.80
2022-10-31T14:48:40.198Z,2.08
2022-10-31T14:51:14.741Z,2.00
2022-10-31T14:53:48.155Z,2.10
2022-10-31T14:56:22.672Z,2.08
2022-10-31T14:58:50.999Z,1.83
2022-10-31T15:01:24.141Z,2.47
2022-10-31T15:04:21.836Z,1.98
2022-10-31T15:06:44.970Z,1.98
2022-10-31T15:09:28.264Z,2.40
2022-10-31T15:11:55.670Z,2.53
2022-10-31T15:14:26.293Z,2.33
2022-10-31T15:16:54.230Z,2.88
2022-10-31T15:19:24.957Z,2.63
2022-10-31T15:21:54.490Z,1.95
2022-10-31T15:24:22.312Z,2.43
2022-10-31T15:26:54.466Z,2.45
2022-10-31T15:29:23.532Z,2.13
2022-10-31T15:31:51.785Z,2.00
2022-10-31T15:34:23.993Z,2.20
2022-10-31T15:36:51.818Z,2.37
2022-10-31T15:39:19.887Z,1.90
2022-10-31T15:41:54.805Z,2.55
2022-10-31T15:44:25.941Z,2.35
2022-10-31T15:46:56.037Z,2.30
2022-10-31T15:49:32.526Z,2.67
2022-10-31T15:52:07.186Z,2.42
2022-10-31T15:54:35.089Z,3.15
2022-10-31T15:57:04.029Z,2.47
2022-10-31T15:59:32.001Z,2.67
2022-10-31T16:02:02.902Z,3.03
2022-10-31T16:04:31.215Z,2.38
2022-10-31T16:07:03.475Z,2.38
2022-10-31T16:09:31.111Z,3.35
2022-10-31T16:12:00.312Z,2.30
2022-10-31T16:14:32.559Z,2.27
2022-10-31T16:17:01.589Z,2.28
2022-10-31T16:19:33.229Z,1.98
2022-10-31T16:22:06.770Z,2.33
2022-10-31T16:24:36.822Z,2.30
2022-10-31T16:27:07.435Z,2.40
2022-10-31T16:29:41.234Z,2.50
2022-10-31T16:32:34.645Z,2.42
2022-10-31T16:35:18.201Z,2.25
2022-10-31T16:37:46.046Z,2.58
2022-10-31T16:40:14.759Z,2.07
2022-10-31T16:42:42.516Z,2.53
2022-10-31T16:45:19.002Z,2.20
2022-10-31T16:47:46.820Z,2.50
2022-10-31T16:50:16.922Z,2.53
2022-10-31T16:53:08.458Z,2.30
2022-10-31T16:55:35.813Z,2.35
2022-10-31T16:58:04.195Z,2.53
2022-10-31T17:00:32.978Z,2.53
2022-10-31T17:03:00.415Z,2.22
2022-10-31T17:05:30.105Z,2.67
2022-10-31T17:07:57.814Z,2.83
2022-10-31T17:10:26.078Z,2.25
2022-10-31T17:12:54.019Z,2.85
2022-10-31T17:15:24.289Z,2.50
2022-10-31T17:17:53.843Z,2.60
2022-10-31T17:20:23.416Z,2.28
2022-10-31T17:22:50.935Z,2.05
2022-10-31T17:25:20.230Z,2.30
2022-10-31T17:27:47.718Z,2.08
2022-10-31T17:30:18.454Z,2.40
2022-10-31T17:32:47.454Z,2.30
2022-10-31T17:35:17.567Z,2.50
2022-10-31T17:37:46.714Z,2.30
2022-10-31T17:40:16.516Z,2.90
2022-10-31T17:42:44.034Z,1.97
2022-10-31T17:45:13.210Z,2.33
2022-10-31T17:47:40.653Z,2.72
2022-10-31T17:50:09.150Z,2.03
2022-10-31T17:52:37.962Z,2.58
2022-10-31T17:55:06.010Z,2.63
2022-10-31T17:57:37.259Z,2.42
2022-10-31T18:00:06.753Z,2.25
2022-10-31T18:02:34.627Z,2.47
2022-10-31T18:05:03.119Z,2.40
2022-10-31T18:07:30.561Z,2.40
2022-10-31T18:09:59.390Z,2.45
2022-10-31T18:12:27.301Z,2.30
2022-10-31T18:14:55.312Z,2.70
2022-10-31T18:17:23.014Z,2.13
2022-10-31T18:19:50.580Z,2.87
2022-10-31T18:22:18.084Z,2.28
2022-10-31T18:24:45.498Z,2.00
2022-10-31T18:27:14.284Z,2.15
2022-10-31T18:29:41.754Z,2.13
2022-10-31T18:32:09.756Z,2.63
2022-10-31T18:34:37.312Z,2.10
2022-10-31T18:37:04.836Z,2.50
2022-10-31T18:39:32.359Z,2.35
2022-10-31T18:41:59.824Z,1.80
2022-10-31T18:44:28.588Z,2.10
2022-10-31T18:46:56.044Z,2.30
2022-10-31T18:49:23.831Z,2.17
2022-10-31T18:51:51.564Z,2.15
2022-10-31T18:54:19.319Z,2.17
2022-10-31T18:56:46.714Z,2.30
2022-10-31T18:59:14.254Z,2.25
2022-10-31T19:01:43.093Z,2.30
2022-10-31T19:04:11.624Z,2.28
2022-10-31T19:06:39.312Z,2.47
2022-10-31T19:09:09.435Z,1.80
2022-10-31T19:11:37.893Z,2.35
2022-10-31T19:14:08.186Z,1.83
2022-10-31T19:16:36.377Z,2.55
2022-10-31T19:19:05.189Z,2.30
2022-10-31T19:21:32.605Z,1.80
2022-10-31T19:24:01.305Z,1.67
2022-10-31T19:26:29.328Z,2.80
2022-10-31T19:28:57.720Z,2.10
2022-10-31T19:31:25.606Z,2.60
2022-10-31T19:33:53.190Z,2.17
2022-10-31T19:36:22.411Z,2.28
2022-10-31T19:38:51.560Z,2.10
2022-10-31T19:41:20.628Z,2.20
2022-10-31T19:43:48.135Z,2.22
2022-10-31T19:46:22.651Z,2.70
2022-10-31T19:49:01.658Z,2.28
2022-10-31T19:51:30.483Z,2.38
2022-10-31T19:53:57.914Z,3.08
2022-10-31T19:56:26.256Z,2.35
2022-10-31T19:58:53.850Z,2.80
2022-10-31T20:01:23.512Z,2.60
2022-10-31T20:03:51.807Z,2.00
2022-10-31T20:06:23.297Z,1.90
2022-10-31T20:08:52.557Z,2.22
2022-10-31T20:11:20.164Z,2.53
2022-10-31T20:13:47.633Z,2.58
2022-10-31T20:16:16.923Z,2.03
2022-10-31T20:18:44.851Z,2.22
2022-10-31T20:21:14.381Z,2.50
2022-10-31T20:23:42.116Z,2.27
2022-10-31T20:26:12.880Z,2.55
2022-10-31T20:28:43.403Z,2.10
2022-10-31T20:31:13.038Z,2.30
2022-10-31T20:33:40.602Z,2.08
2022-10-31T20:36:09.349Z,2.13
2022-10-31T20:38:38.845Z,2.35
2022-10-31T20:41:09.185Z,2.20
2022-10-31T20:43:38.983Z,2.50
2022-10-31T20:46:08.510Z,1.95
2022-10-31T20:48:35.953Z,2.40
2022-10-31T20:51:05.044Z,2.15
2022-10-31T20:53:33.356Z,2.45
2022-10-31T20:56:06.897Z,2.92
2022-10-31T20:58:35.478Z,2.75
2022-10-31T21:01:05.340Z,2.93
2022-10-31T21:03:36.299Z,2.60
2022-10-31T21:06:05.426Z,2.90
2022-10-31T21:08:33.806Z,2.35
2022-10-31T21:11:01.735Z,3.33
2022-10-31T21:13:29.305Z,2.57
2022-10-31T21:16:01.310Z,2.50
2022-10-31T21:18:30.233Z,2.65
2022-10-31T21:20:57.854Z,2.60
2022-10-31T21:23:25.309Z,1.88
2022-10-31T21:25:53.246Z,2.50
2022-10-31T21:28:20.689Z,2.30
2022-10-31T21:30:51.455Z,2.10
2022-10-31T21:33:19.103Z,2.03
2022-10-31T21:35:51.786Z,2.47
2022-10-31T21:38:19.638Z,2.47
2022-10-31T21:40:47.122Z,3.10
2022-10-31T21:43:14.612Z,2.63
2022-10-31T21:45:42.037Z,2.47
2022-10-31T21:48:09.490Z,2.50
2022-10-31T21:50:36.935Z,2.50
2022-10-31T21:53:19.640Z,2.92
2022-10-31T21:55:47.084Z,2.60
2022-10-31T21:58:14.538Z,2.33
2022-10-31T22:00:42.006Z,2.83
2022-10-31T22:03:09.447Z,2.87
2022-10-31T22:05:36.916Z,2.70
2022-10-31T22:08:06.223Z,2.60
2022-10-31T22:10:34.642Z,2.47
2022-10-31T22:13:02.057Z,2.53
2022-10-31T22:15:29.462Z,2.43
2022-10-31T22:17:56.946Z,2.78
2022-10-31T22:20:29.378Z,2.28
2022-10-31T22:22:56.950Z,2.60
2022-10-31T22:25:25.749Z,2.72
2022-10-31T22:27:53.362Z,3.27
2022-10-31T22:30:20.802Z,2.10
2022-10-31T22:32:48.219Z,2.58
2022-10-31T22:35:15.816Z,2.25
2022-10-31T22:37:43.277Z,2.08
2022-10-31T22:40:11.626Z,2.53
2022-10-31T22:42:40.396Z,2.22
2022-10-31T22:45:09.004Z,2.20
2022-10-31T22:47:36.488Z,2.40
2022-10-31T22:50:04.032Z,2.03
2022-10-31T22:52:31.583Z,2.23
2022-10-31T22:54:59.366Z,2.67
2022-10-31T22:57:26.903Z,2.22
2022-10-31T22:59:55.689Z,2.60
2022-10-31T23:02:23.136Z,2.22
2022-10-31T23:04:50.621Z,1.80
2022-10-31T23:07:23.035Z,2.33
2022-10-31T23:09:51.679Z,3.88
2022-10-31T23:12:36.887Z,2.42
2022-10-31T23:15:07.041Z,2.30
2022-10-31T23:17:34.471Z,2.30
2022-10-31T23:20:01.943Z,2.10
2022-10-31T23:22:29.427Z,2.47
2022-10-31T23:24:56.850Z,2.75
2022-10-31T23:27:24.304Z,2.58
2022-10-31T23:29:52.996Z,2.50
2022-10-31T23:32:24.900Z,2.10
2022-10-31T23:34:54.048Z,2.38
2022-10-31T23:37:23.392Z,2.40
2022-10-31T23:39:50.939Z,2.20
2022-10-31T23:42:18.973Z,2.90
2022-10-31T23:44:46.929Z,2.58
2022-10-31T23:47:15.208Z,2.30
2022-10-31T23:49:44.218Z,2.78
2022-10-31T23:52:12.828Z,3.10
2022-10-31T23:54:40.550Z,2.47
2022-10-31T23:57:08.543Z,2.60
2022-10-31T23:59:36.662Z,2.92
